createdAt,value
2019-04-11T00:00:01.298Z,78.56
2019-04-11T00:02:33.450Z,78.72
2019-04-11T00:05:06.425Z,78.82
2019-04-11T00:07:38.573Z,78.98
2019-04-11T00:10:10.942Z,79.21
2019-04-11T00:12:43.386Z,79.13
2019-04-11T00:15:15.892Z,79.18
2019-04-11T00:17:48.245Z,79.35
2019-04-11T00:20:20.170Z,79.43
2019-04-11T00:22:52.653Z,79.64
2019-04-11T00:25:25.280Z,79.95
2019-04-11T00:27:57.443Z,80.11
2019-04-11T00:30:30.305Z,80.22
2019-04-11T00:33:02.531Z,80.47
2019-04-11T00:35:34.193Z,80.63
2019-04-11T00:38:07.642Z,80.76
2019-04-11T00:40:39.676Z,80.77
2019-04-11T00:43:11.612Z,80.48
2019-04-11T00:45:43.581Z,80.17
2019-04-11T00:48:15.149Z,79.88
2019-04-11T00:50:47.628Z,79.71
2019-04-11T00:53:20.511Z,79.64
2019-04-11T00:55:53.518Z,79.66
2019-04-11T00:58:25.691Z,79.66
2019-04-11T01:00:57.622Z,79.81
2019-04-11T01:03:30.490Z,79.89
2019-04-11T01:06:03.500Z,79.87
2019-04-11T01:08:35.717Z,79.98
2019-04-11T01:11:08.011Z,79.96
2019-04-11T01:13:47.696Z,79.99
2019-04-11T01:16:20.581Z,79.99
2019-04-11T01:18:52.514Z,79.90
2019-04-11T01:21:24.498Z,79.93
2019-04-11T01:23:57.506Z,79.84
2019-04-11T01:26:29.728Z,79.73
2019-04-11T01:29:01.583Z,79.74
2019-04-11T01:31:35.905Z,79.57
2019-04-11T01:34:08.575Z,79.52
2019-04-11T01:36:39.691Z,79.55
2019-04-11T01:39:16.846Z,79.67
2019-04-11T01:41:48.872Z,79.59
2019-04-11T01:44:20.930Z,79.94
2019-04-11T01:46:52.603Z,80.30
2019-04-11T01:49:26.290Z,80.83
2019-04-11T01:51:58.580Z,82.41
2019-04-11T01:54:30.729Z,83.98
2019-04-11T01:57:03.479Z,85.03
2019-04-11T01:59:35.493Z,85.81
2019-04-11T02:02:09.527Z,86.24
2019-04-11T02:04:54.857Z,86.67
2019-04-11T02:07:26.904Z,86.88
2019-04-11T02:09:58.390Z,86.95
2019-04-11T02:12:31.043Z,87.23
2019-04-11T02:15:03.994Z,87.56
2019-04-11T02:17:36.979Z,87.85
2019-04-11T02:20:09.417Z,88.16
2019-04-11T02:22:46.543Z,88.58
2019-04-11T02:25:23.165Z,89.47
2019-04-11T02:27:56.036Z,90.30
2019-04-11T02:30:28.446Z,90.86
2019-04-11T02:33:01.275Z,91.27
2019-04-11T02:35:34.997Z,91.64
2019-04-11T02:38:08.031Z,91.94
2019-04-11T02:40:41.242Z,92.22
2019-04-11T02:43:15.881Z,92.48
2019-04-11T02:45:58.815Z,92.72
2019-04-11T02:48:22.098Z,92.96
2019-04-11T02:50:54.408Z,93.19
2019-04-11T02:53:30.035Z,93.35
2019-04-11T02:56:02.842Z,93.48
2019-04-11T02:58:36.709Z,93.57
2019-04-11T03:01:10.457Z,93.66
2019-04-11T03:03:42.522Z,93.79
2019-04-11T03:06:15.237Z,93.88
2019-04-11T03:08:49.017Z,93.92
2019-04-11T03:11:21.904Z,93.94
2019-04-11T03:13:55.645Z,93.99
2019-04-11T03:16:38.221Z,94.05
2019-04-11T03:19:17.964Z,94.10
2019-04-11T03:21:39.205Z,94.19
2019-04-11T03:24:10.937Z,94.28
2019-04-11T03:26:43.576Z,94.32
2019-04-11T03:29:17.619Z,94.39
2019-04-11T03:32:32.114Z,94.39
2019-04-11T03:35:16.996Z,94.32
2019-04-11T03:37:24.280Z,94.18
2019-04-11T03:39:50.850Z,93.91
2019-04-11T03:42:25.086Z,93.71
2019-04-11T03:44:44.969Z,93.66
2019-04-11T03:47:29.186Z,93.52
2019-04-11T03:49:51.952Z,93.45
2019-04-11T03:52:19.937Z,93.48
2019-04-11T03:54:53.947Z,93.43
2019-04-11T03:57:27.569Z,93.39
2019-04-11T04:00:01.062Z,93.33
2019-04-11T04:02:35.018Z,93.06
2019-04-11T04:05:08.871Z,92.39
2019-04-11T04:07:41.280Z,92.34
2019-04-11T04:10:15.671Z,92.28
2019-04-11T04:12:47.549Z,92.26
2019-04-11T04:15:37.513Z,92.19
2019-04-11T04:17:57.334Z,92.24
2019-04-11T04:20:42.042Z,92.29
2019-04-11T04:23:19.047Z,92.32
2019-04-11T04:25:51.762Z,92.22
2019-04-11T04:28:23.856Z,91.81
2019-04-11T04:30:55.472Z,91.63
2019-04-11T04:33:33.243Z,91.34
2019-04-11T04:36:06.506Z,91.41
2019-04-11T04:38:39.805Z,90.99
2019-04-11T04:41:22.436Z,90.90
2019-04-11T04:43:49.102Z,90.84
2019-04-11T04:46:34.773Z,90.69
2019-04-11T04:48:55.992Z,89.60
2019-04-11T04:51:28.928Z,89.57
2019-04-11T04:54:01.453Z,89.60
2019-04-11T04:56:34.914Z,89.63
2019-04-11T04:59:09.446Z,89.48
2019-04-11T05:01:41.718Z,89.25
2019-04-11T05:04:15.774Z,88.33
2019-04-11T05:06:50.810Z,88.02
2019-04-11T05:09:23.545Z,87.36
2019-04-11T05:11:55.540Z,87.15
2019-04-11T05:14:28.168Z,86.75
2019-04-11T05:17:02.475Z,86.51
2019-04-11T05:19:34.229Z,86.48
2019-04-11T05:22:08.475Z,86.19
2019-04-11T05:24:41.067Z,86.05
2019-04-11T05:27:12.819Z,85.82
2019-04-11T05:29:45.901Z,85.56
2019-04-11T05:32:17.657Z,85.35
2019-04-11T05:34:49.714Z,84.40
2019-04-11T05:37:22.727Z,84.12
2019-04-11T05:39:54.574Z,84.57
2019-04-11T05:42:27.386Z,84.14
2019-04-11T05:44:59.254Z,83.93
2019-04-11T05:47:31.712Z,84.09
2019-04-11T05:50:20.220Z,83.98
2019-04-11T05:52:52.469Z,84.59
2019-04-11T05:55:25.905Z,84.90
2019-04-11T05:58:00.819Z,84.92
2019-04-11T06:00:49.977Z,86.21
2019-04-11T06:03:23.690Z,86.82
2019-04-11T06:06:06.613Z,86.85
2019-04-11T06:08:40.200Z,86.50
2019-04-11T06:11:24.150Z,85.78
2019-04-11T06:14:00.737Z,85.29
2019-04-11T06:16:39.940Z,84.60
2019-04-11T06:19:23.415Z,84.34
2019-04-11T06:22:00.286Z,83.46
2019-04-11T06:24:36.679Z,82.93
2019-04-11T06:27:11.298Z,82.52
2019-04-11T06:30:01.268Z,81.33
2019-04-11T06:32:52.093Z,80.24
2019-04-11T06:35:26.855Z,79.24
2019-04-11T06:38:03.186Z,79.40
2019-04-11T06:40:44.011Z,79.06
2019-04-11T06:43:18.342Z,79.78
2019-04-11T06:46:11.172Z,79.46
2019-04-11T06:48:56.575Z,79.31
2019-04-11T06:51:33.313Z,78.90
2019-04-11T06:54:23.292Z,79.11
2019-04-11T06:56:55.285Z,79.20
2019-04-11T06:59:34.568Z,80.12
2019-04-11T07:02:16.450Z,80.05
2019-04-11T07:04:51.850Z,79.36
2019-04-11T07:07:28.793Z,78.83
2019-04-11T07:10:02.148Z,79.23
2019-04-11T07:12:39.149Z,79.49
2019-04-11T07:15:14.448Z,79.07
2019-04-11T07:18:07.493Z,79.37
2019-04-11T07:20:43.917Z,77.06
2019-04-11T07:23:33.680Z,76.37
2019-04-11T07:26:13.223Z,73.74
2019-04-11T07:28:47.906Z,72.51
2019-04-11T07:31:21.685Z,70.35
2019-04-11T07:33:56.237Z,68.11
2019-04-11T07:36:46.265Z,63.71
2019-04-11T07:39:25.722Z,60.92
2019-04-11T07:42:00.306Z,55.93
2019-04-11T07:44:38.583Z,50.55
2019-04-11T07:47:18.606Z,45.27
2019-04-11T07:49:49.639Z,40.54
2019-04-11T07:52:27.222Z,38.86
2019-04-11T07:55:00.179Z,41.55
2019-04-11T07:57:33.744Z,42.20
2019-04-11T08:00:36.577Z,42.04
2019-04-11T08:03:04.589Z,42.74
2019-04-11T08:05:56.602Z,46.57
2019-04-11T08:08:41.874Z,49.42
2019-04-11T08:11:15.860Z,48.91
2019-04-11T08:13:53.586Z,52.40
2019-04-11T08:16:45.361Z,52.75
2019-04-11T08:19:35.172Z,52.75
2019-04-11T08:22:14.862Z,53.51
2019-04-11T08:25:05.011Z,55.04
2019-04-11T08:27:50.033Z,56.95
2019-04-11T08:30:12.775Z,58.84
2019-04-11T08:32:46.442Z,60.05
2019-04-11T08:35:40.175Z,60.19
2019-04-11T08:38:18.860Z,59.57
2019-04-11T08:40:55.532Z,59.50
2019-04-11T08:43:35.150Z,57.95
2019-04-11T08:46:08.898Z,57.26
2019-04-11T08:48:42.805Z,56.56
2019-04-11T08:51:17.165Z,55.71
2019-04-11T08:54:07.124Z,56.21
2019-04-11T08:56:41.107Z,55.87
2019-04-11T08:59:33.574Z,54.62
2019-04-11T09:02:06.853Z,54.81
2019-04-11T09:04:41.225Z,54.30
2019-04-11T09:07:15.343Z,54.53
2019-04-11T09:09:48.818Z,54.36
2019-04-11T09:12:20.605Z,53.15
2019-04-11T09:15:02.880Z,50.95
2019-04-11T09:17:36.709Z,50.71
2019-04-11T09:20:11.461Z,48.92
2019-04-11T09:22:47.679Z,46.65
2019-04-11T09:25:21.375Z,47.31
2019-04-11T09:28:06.454Z,46.99
2019-04-11T09:30:57.007Z,47.82
2019-04-11T09:33:39.719Z,47.72
2019-04-11T09:36:30.539Z,47.44
2019-04-11T09:39:17.102Z,48.37
2019-04-11T09:42:00.924Z,49.66
2019-04-11T09:44:49.954Z,49.30
2019-04-11T09:47:41.635Z,49.13
2019-04-11T09:50:30.047Z,48.86
2019-04-11T09:53:02.222Z,49.49
2019-04-11T09:55:50.110Z,49.45
2019-04-11T09:58:27.522Z,49.63
2019-04-11T10:01:01.672Z,48.49
2019-04-11T10:03:36.577Z,48.43
2019-04-11T10:06:22.026Z,48.32
2019-04-11T10:08:55.853Z,48.68
2019-04-11T10:11:36.177Z,48.62
2019-04-11T10:14:13.778Z,49.82
2019-04-11T10:16:56.450Z,50.46
2019-04-11T10:19:31.740Z,49.95
2019-04-11T10:22:08.853Z,49.63
2019-04-11T10:24:51.456Z,48.23
2019-04-11T10:27:31.007Z,47.46
2019-04-11T10:30:19.978Z,46.85
2019-04-11T10:32:59.444Z,46.94
2019-04-11T10:35:42.729Z,47.48
2019-04-11T10:38:16.265Z,47.76
2019-04-11T10:40:50.379Z,47.76
2019-04-11T10:43:22.571Z,47.61
2019-04-11T10:45:58.811Z,47.77
2019-04-11T10:48:38.812Z,47.87
2019-04-11T10:51:12.951Z,47.69
2019-04-11T10:53:44.632Z,47.26
2019-04-11T10:56:34.814Z,46.46
2019-04-11T10:59:07.078Z,46.38
2019-04-11T11:01:40.676Z,46.21
2019-04-11T11:04:18.044Z,46.30
2019-04-11T11:06:51.871Z,45.95
2019-04-11T11:09:26.236Z,45.89
2019-04-11T11:12:05.508Z,45.89
2019-04-11T11:14:57.079Z,46.19
2019-04-11T11:18:20.517Z,45.37
2019-04-11T11:20:29.994Z,45.24
2019-04-11T11:22:58.327Z,45.04
2019-04-11T11:25:37.437Z,44.90
2019-04-11T11:28:09.752Z,46.88
2019-04-11T11:30:59.177Z,48.36
2019-04-11T11:33:32.632Z,48.95
2019-04-11T11:36:25.719Z,49.29
2019-04-11T11:39:15.389Z,49.52
2019-04-11T11:41:48.942Z,48.29
2019-04-11T11:44:24.467Z,48.29
2019-04-11T11:47:12.951Z,47.74
2019-04-11T11:49:54.600Z,48.85
2019-04-11T11:52:36.053Z,49.81
2019-04-11T11:55:10.379Z,49.70
2019-04-11T11:57:44.838Z,50.66
2019-04-11T12:00:21.435Z,50.55
2019-04-11T12:03:02.493Z,50.01
2019-04-11T12:05:36.811Z,50.13
2019-04-11T12:08:28.837Z,50.38
2019-04-11T12:11:02.493Z,49.48
2019-04-11T12:13:40.590Z,48.86
2019-04-11T12:16:20.732Z,48.19
2019-04-11T12:18:54.380Z,47.65
2019-04-11T12:21:28.496Z,47.25
2019-04-11T12:24:07.030Z,47.25
2019-04-11T12:26:47.609Z,47.81
2019-04-11T12:29:38.616Z,47.80
2019-04-11T12:32:17.360Z,47.91
2019-04-11T12:34:59.863Z,47.89
2019-04-11T12:37:33.679Z,47.98
2019-04-11T12:40:18.285Z,47.50
2019-04-11T12:42:50.152Z,47.53
2019-04-11T12:45:26.927Z,47.58
2019-04-11T12:48:01.166Z,47.68
2019-04-11T12:50:49.517Z,47.46
2019-04-11T12:53:21.248Z,47.58
2019-04-11T12:55:54.869Z,47.39
2019-04-11T12:58:30.991Z,47.70
2019-04-11T13:01:04.737Z,47.18
2019-04-11T13:03:54.809Z,47.21
2019-04-11T13:06:40.055Z,47.01
2019-04-11T13:09:19.671Z,47.45
2019-04-11T13:12:09.927Z,46.59
2019-04-11T13:14:45.927Z,45.71
2019-04-11T13:17:19.419Z,45.55
2019-04-11T13:20:08.926Z,46.31
2019-04-11T13:22:41.222Z,46.97
2019-04-11T13:25:31.407Z,48.02
2019-04-11T13:28:03.377Z,47.08
2019-04-11T13:30:36.861Z,46.96
2019-04-11T13:33:11.102Z,46.73
2019-04-11T13:35:58.282Z,46.89
2019-04-11T13:38:32.320Z,47.05
2019-04-11T13:41:21.579Z,46.77
2019-04-11T13:43:55.713Z,46.51
2019-04-11T13:46:31.978Z,46.17
2019-04-11T13:49:21.754Z,46.19
2019-04-11T13:52:11.100Z,46.40
2019-04-11T13:54:56.874Z,46.58
2019-04-11T13:57:32.710Z,46.75
2019-04-11T14:00:24.381Z,46.52
2019-04-11T14:02:58.084Z,46.23
2019-04-11T14:05:31.534Z,46.03
2019-04-11T14:08:03.452Z,45.96
2019-04-11T14:10:35.474Z,45.66
2019-04-11T14:13:08.829Z,45.77
2019-04-11T14:15:45.341Z,45.75
2019-04-11T14:18:19.272Z,45.53
2019-04-11T14:20:52.778Z,45.54
2019-04-11T14:23:26.288Z,45.87
2019-04-11T14:25:59.565Z,46.14
2019-04-11T14:28:39.128Z,46.31
2019-04-11T14:31:29.093Z,46.71
2019-04-11T14:34:02.563Z,46.73
2019-04-11T14:36:39.089Z,46.74
2019-04-11T14:39:12.727Z,46.75
2019-04-11T14:41:49.135Z,46.85
2019-04-11T14:44:21.027Z,47.13
2019-04-11T14:47:10.731Z,47.06
2019-04-11T14:49:45.158Z,47.13
2019-04-11T14:52:33.401Z,47.47
2019-04-11T14:55:08.550Z,47.63
2019-04-11T14:57:47.046Z,47.69
2019-04-11T15:00:24.984Z,48.29
2019-04-11T15:03:02.845Z,48.02
2019-04-11T15:05:44.575Z,48.15
2019-04-11T15:08:17.662Z,48.73
2019-04-11T15:11:01.462Z,49.08
2019-04-11T15:13:35.159Z,49.93
2019-04-11T15:16:24.981Z,50.43
2019-04-11T15:18:58.388Z,51.10
2019-04-11T15:21:47.993Z,51.51
2019-04-11T15:24:20.226Z,51.66
2019-04-11T15:26:56.817Z,52.12
2019-04-11T15:29:30.010Z,52.44
2019-04-11T15:32:19.255Z,52.81
2019-04-11T15:34:52.882Z,52.96
2019-04-11T15:37:32.917Z,53.17
2019-04-11T15:40:08.341Z,53.45
2019-04-11T15:42:47.857Z,53.64
2019-04-11T15:45:21.109Z,53.92
2019-04-11T15:47:57.436Z,54.48
2019-04-11T15:50:47.039Z,54.61
2019-04-11T15:53:36.972Z,54.95
2019-04-11T15:56:27.262Z,55.25
2019-04-11T15:59:12.930Z,55.16
2019-04-11T16:01:56.624Z,55.46
2019-04-11T16:04:30.287Z,55.53
2019-04-11T16:07:12.131Z,55.93
2019-04-11T16:09:46.033Z,56.31
2019-04-11T16:12:19.375Z,56.73
2019-04-11T16:15:09.515Z,57.09
2019-04-11T16:17:59.081Z,57.48
2019-04-11T16:20:31.154Z,57.99
2019-04-11T16:23:21.157Z,58.58
2019-04-11T16:25:53.319Z,59.02
2019-04-11T16:28:38.238Z,59.32
2019-04-11T16:31:10.321Z,59.77
2019-04-11T16:33:49.659Z,60.21
2019-04-11T16:36:27.248Z,60.60
2019-04-11T16:39:04.363Z,60.92
2019-04-11T16:41:54.533Z,61.09
2019-04-11T16:44:46.288Z,61.33
2019-04-11T16:47:34.921Z,61.35
2019-04-11T16:50:06.849Z,61.55
2019-04-11T16:52:39.327Z,61.92
2019-04-11T16:55:11.528Z,61.68
2019-04-11T16:57:44.220Z,61.69
2019-04-11T17:00:20.361Z,61.96
2019-04-11T17:02:54.729Z,62.41
2019-04-11T17:05:26.811Z,62.81
2019-04-11T17:08:15.167Z,63.18
2019-04-11T17:11:00.266Z,63.42
2019-04-11T17:13:32.620Z,63.78
2019-04-11T17:16:07.178Z,64.01
2019-04-11T17:18:38.822Z,64.12
2019-04-11T17:21:10.672Z,64.31
2019-04-11T17:23:46.833Z,64.42
2019-04-11T17:26:16.809Z,64.52
2019-04-11T17:28:48.558Z,64.72
2019-04-11T17:31:20.666Z,64.94
2019-04-11T17:33:52.442Z,65.21
2019-04-11T17:36:24.324Z,65.28
2019-04-11T17:38:55.856Z,65.42
2019-04-11T17:41:28.221Z,65.46
2019-04-11T17:44:00.922Z,65.33
2019-04-11T17:46:33.953Z,65.39
2019-04-11T17:49:06.310Z,66.16
2019-04-11T17:51:38.531Z,66.18
2019-04-11T17:54:10.922Z,66.47
2019-04-11T17:56:42.762Z,66.79
2019-04-11T17:59:14.336Z,67.31
2019-04-11T18:01:46.577Z,67.24
2019-04-11T18:04:18.158Z,67.33
2019-04-11T18:06:50.122Z,67.50
2019-04-11T18:09:25.570Z,67.79
2019-04-11T18:11:56.247Z,68.08
2019-04-11T18:14:30.747Z,67.99
2019-04-11T18:17:04.526Z,67.51
2019-04-11T18:19:36.234Z,67.25
2019-04-11T18:22:13.344Z,66.94
2019-04-11T18:24:42.942Z,66.81
2019-04-11T18:27:14.325Z,66.71
2019-04-11T18:29:45.996Z,66.92
2019-04-11T18:32:17.704Z,66.80
2019-04-11T18:34:49.591Z,66.87
2019-04-11T18:37:21.326Z,66.93
2019-04-11T18:39:53.304Z,67.07
2019-04-11T18:42:25.858Z,67.27
2019-04-11T18:44:57.010Z,67.38
2019-04-11T18:47:28.915Z,67.75
2019-04-11T18:50:00.628Z,67.87
2019-04-11T18:52:32.611Z,67.98
2019-04-11T18:55:06.715Z,68.20
2019-04-11T18:57:38.488Z,68.39
2019-04-11T19:00:13.182Z,68.55
2019-04-11T19:02:45.262Z,68.62
2019-04-11T19:05:28.252Z,68.71
2019-04-11T19:07:51.128Z,68.68
2019-04-11T19:10:23.024Z,69.79
2019-04-11T19:12:55.489Z,71.49
2019-04-11T19:15:27.557Z,72.25
2019-04-11T19:18:06.382Z,72.87
2019-04-11T19:20:32.967Z,73.35
2019-04-11T19:23:07.621Z,73.74
2019-04-11T19:25:42.377Z,74.21
2019-04-11T19:28:12.362Z,74.69
2019-04-11T19:30:44.711Z,75.19
2019-04-11T19:33:19.100Z,75.28
2019-04-11T19:35:51.320Z,75.54
2019-04-11T19:38:27.962Z,75.32
2019-04-11T19:40:59.693Z,75.07
2019-04-11T19:43:32.283Z,75.27
2019-04-11T19:46:04.074Z,75.09
2019-04-11T19:48:36.380Z,75.09
2019-04-11T19:51:10.795Z,75.08
2019-04-11T19:53:43.014Z,75.18
2019-04-11T19:56:22.476Z,75.04
2019-04-11T19:58:54.162Z,75.14
2019-04-11T20:01:26.105Z,75.38
2019-04-11T20:03:58.199Z,75.57
2019-04-11T20:06:30.233Z,75.48
2019-04-11T20:09:02.446Z,75.76
2019-04-11T20:11:35.887Z,75.93
2019-04-11T20:14:08.179Z,75.69
2019-04-11T20:16:42.055Z,75.70
2019-04-11T20:19:14.483Z,75.89
2019-04-11T20:21:46.554Z,76.06
2019-04-11T20:24:18.374Z,76.21
2019-04-11T20:26:50.946Z,76.51
2019-04-11T20:29:22.697Z,76.79
2019-04-11T20:31:54.987Z,76.97
2019-04-11T20:34:28.160Z,77.11
2019-04-11T20:37:00.149Z,76.93
2019-04-11T20:39:33.105Z,76.69
2019-04-11T20:42:05.284Z,76.30
2019-04-11T20:44:37.658Z,75.94
2019-04-11T20:47:09.395Z,75.72
2019-04-11T20:49:42.858Z,75.49
2019-04-11T20:52:14.614Z,75.37
2019-04-11T20:54:46.256Z,75.38
2019-04-11T20:57:25.535Z,75.16
2019-04-11T20:59:52.910Z,75.15
2019-04-11T21:02:28.396Z,75.68
2019-04-11T21:04:58.879Z,76.93
2019-04-11T21:07:32.579Z,77.57
2019-04-11T21:10:06.081Z,78.70
2019-04-11T21:12:38.075Z,79.64
2019-04-11T21:15:10.193Z,80.28
2019-04-11T21:17:42.526Z,80.56
2019-04-11T21:20:14.238Z,80.84
2019-04-11T21:22:46.228Z,81.08
2019-04-11T21:25:18.039Z,81.59
2019-04-11T21:27:50.221Z,81.33
2019-04-11T21:30:21.407Z,81.28
2019-04-11T21:32:53.049Z,81.29
2019-04-11T21:35:24.783Z,80.93
2019-04-11T21:37:57.901Z,80.87
2019-04-11T21:40:35.643Z,80.88
2019-04-11T21:43:06.176Z,80.85
2019-04-11T21:45:38.474Z,80.95
2019-04-11T21:48:10.375Z,81.05
2019-04-11T21:50:42.185Z,81.11
2019-04-11T21:53:14.981Z,81.05
2019-04-11T21:55:47.651Z,81.12
2019-04-11T21:58:20.553Z,81.24
2019-04-11T22:00:54.358Z,81.36
2019-04-11T22:03:26.740Z,81.62
2019-04-11T22:06:00.102Z,81.38
2019-04-11T22:08:34.536Z,81.46
2019-04-11T22:11:09.825Z,81.68
2019-04-11T22:13:40.911Z,81.76
2019-04-11T22:16:14.288Z,81.78
2019-04-11T22:18:46.323Z,82.01
2019-04-11T22:21:18.173Z,82.28
2019-04-11T22:23:50.169Z,82.41
2019-04-11T22:26:22.056Z,82.56
2019-04-11T22:28:55.112Z,82.90
2019-04-11T22:31:27.931Z,83.27
2019-04-11T22:34:17.734Z,83.30
2019-04-11T22:36:49.989Z,83.46
2019-04-11T22:39:21.602Z,83.56
2019-04-11T22:41:53.812Z,83.67
2019-04-11T22:44:25.781Z,83.83
2019-04-11T22:46:57.773Z,83.45
2019-04-11T22:49:29.487Z,82.60
2019-04-11T22:52:01.316Z,83.79
2019-04-11T22:54:33.826Z,84.27
2019-04-11T22:57:06.227Z,84.63
2019-04-11T22:59:37.764Z,84.53
2019-04-11T23:02:11.520Z,84.02
2019-04-11T23:04:46.931Z,83.96
2019-04-11T23:07:17.779Z,84.05
2019-04-11T23:09:50.232Z,84.48
2019-04-11T23:12:22.174Z,85.31
2019-04-11T23:14:54.022Z,85.34
2019-04-11T23:17:26.437Z,85.30
2019-04-11T23:19:58.351Z,85.18
2019-04-11T23:22:30.766Z,85.17
2019-04-11T23:25:03.062Z,85.00
2019-04-11T23:27:35.278Z,84.90
2019-04-11T23:30:08.461Z,84.87
2019-04-11T23:32:41.108Z,85.02
2019-04-11T23:35:13.104Z,84.77
2019-04-11T23:37:51.952Z,84.38
2019-04-11T23:40:24.840Z,84.25
2019-04-11T23:42:56.363Z,84.24
2019-04-11T23:45:29.865Z,84.18
2019-04-11T23:48:01.467Z,84.11
2019-04-11T23:50:33.892Z,84.24
2019-04-11T23:53:05.867Z,84.50
2019-04-11T23:55:37.674Z,84.73
2019-04-11T23:58:09.574Z,84.82
